首页
METAR-TAF:

METAR-TAF

机场 :

Fond Du Lac County Airport

Fond du Lac, 威斯康辛州, 美国

纬度: 43-46-12N, 经度: 088-29-11W, 海拔: 246米

当前天气观测

该预报发布于1小时和0分钟前的20:53 UTC
风速12节,风向西转西北,有时为18节阵风
温度 -4°C
湿度 74%
气压 1007 hPa
能見度: 9.7公里
阴天层高于1500英尺
未知

METAR: KFLD 142053Z AUTO 29012G18KT 6SM UP OVC015 M04/M08 A2974 RMK AO2 SLP080 P0000 60000 T10441083 53008

时间: 15:53 (21:53 UTC)


TAF: 丢失

超过4000个机场的气象观测和天气预报(METAR&TAF报告)。

可查询的气象台以黄色和红色小点在地图上表示。

将鼠标移到小点上方,可查看气象台名称。

然后点击查看天气观测和预报。

如需切换地图:点击带黑十字的绿色按钮放大地图;点击带横线的绿色按钮缩小地图;或者点击绿色箭头查看邻近地区的地图。


METAR-TAF: